createdAt,value
2018-01-10T08:04:30.055Z,94.50
2018-01-10T08:07:01.941Z,94.30
2018-01-10T08:09:34.604Z,94.40
2018-01-10T08:12:07.259Z,94.60
2018-01-10T08:14:39.158Z,94.60
2018-01-10T08:17:11.831Z,94.60
2018-01-10T08:19:44.486Z,94.50
2018-01-10T08:22:16.468Z,94.50
2018-01-10T08:24:49.147Z,94.50
2018-01-10T08:27:21.049Z,94.70
2018-01-10T08:29:52.951Z,94.50
2018-01-10T08:32:24.835Z,94.50
2018-01-10T08:34:57.504Z,94.50
2018-01-10T08:37:30.155Z,94.40
2018-01-10T08:40:02.159Z,94.40
2018-01-10T08:42:34.007Z,94.40
2018-01-10T08:45:06.697Z,94.20
2018-01-10T08:47:39.347Z,94.10
2018-01-10T08:50:11.295Z,94.10
2018-01-10T08:52:43.186Z,94.00
2018-01-10T08:55:15.878Z,93.90
2018-01-10T08:57:47.746Z,93.90
2018-01-10T09:00:19.667Z,94.10
2018-01-10T09:02:52.327Z,93.90
2018-01-10T09:05:24.265Z,93.90
2018-01-10T09:07:56.148Z,93.90
2018-01-10T09:10:28.374Z,93.70
2018-01-10T09:13:00.254Z,93.60
2018-01-10T09:15:32.157Z,93.70
2018-01-10T09:18:04.974Z,93.70
2018-01-10T09:20:36.876Z,93.50
2018-01-10T09:23:08.760Z,93.30
2018-01-10T09:25:40.668Z,93.30
2018-01-10T09:28:12.543Z,93.20
2018-01-10T09:30:44.442Z,93.00
2018-01-10T09:33:16.459Z,93.00
2018-01-10T09:35:48.382Z,92.60
2018-01-10T09:38:21.027Z,91.80
2018-01-10T09:40:52.975Z,91.80
2018-01-10T09:43:24.866Z,91.90
2018-01-10T09:45:57.542Z,91.60
2018-01-10T09:48:29.459Z,91.90
2018-01-10T09:51:01.396Z,91.70
2018-01-10T09:53:33.285Z,91.40
2018-01-10T09:56:05.432Z,91.00
2018-01-10T09:58:37.317Z,90.40
2018-01-10T10:01:09.253Z,90.40
2018-01-10T10:03:41.137Z,90.00
2018-01-10T10:06:13.042Z,90.00
2018-01-10T10:08:45.687Z,89.00
2018-01-10T10:11:17.607Z,89.00
2018-01-10T10:13:49.480Z,89.10
2018-01-10T10:16:21.374Z,89.20
2018-01-10T10:18:53.250Z,88.30
2018-01-10T10:21:25.159Z,86.60
2018-01-10T10:23:57.933Z,86.80
2018-01-10T10:26:29.820Z,85.40
2018-01-10T10:29:01.700Z,85.50
2018-01-10T10:31:33.600Z,84.40
2018-01-10T10:34:06.295Z,84.20
2018-01-10T10:36:38.193Z,84.20
2018-01-10T10:39:10.079Z,84.80
2018-01-10T10:41:41.984Z,84.10
2018-01-10T10:44:13.871Z,82.70
2018-01-10T10:46:45.774Z,82.70
2018-01-10T10:49:18.415Z,82.30
2018-01-10T10:51:50.323Z,82.20
2018-01-10T10:54:22.211Z,83.00
2018-01-10T10:56:54.151Z,83.40
2018-01-10T10:59:26.036Z,82.80
2018-01-10T11:01:57.934Z,82.70
2018-01-10T11:04:30.860Z,82.50
2018-01-10T11:07:02.761Z,83.30
2018-01-10T11:09:34.635Z,82.70
2018-01-10T11:12:06.548Z,82.60
2018-01-10T11:14:38.427Z,82.50
2018-01-10T11:17:10.323Z,83.40
2018-01-10T11:19:42.217Z,83.00
2018-01-10T11:22:14.886Z,85.50
2018-01-10T11:24:47.535Z,86.40
2018-01-10T11:27:19.432Z,86.40
2018-01-10T11:29:51.308Z,87.20
2018-01-10T11:32:23.216Z,87.50
2018-01-10T11:34:55.102Z,87.20
2018-01-10T11:37:27.755Z,87.20
2018-01-10T11:39:59.631Z,87.20
2018-01-10T11:42:32.287Z,87.30
2018-01-10T11:45:04.159Z,87.30
2018-01-10T11:47:36.083Z,86.80
2018-01-10T11:50:07.960Z,86.60
2018-01-10T11:52:39.872Z,87.00
2018-01-10T11:55:11.760Z,86.20
2018-01-10T11:57:43.650Z,86.30
2018-01-10T12:00:15.541Z,86.70
2018-01-10T12:02:48.212Z,85.10
2018-01-10T12:05:20.863Z,85.20
2018-01-10T12:07:52.775Z,85.20
2018-01-10T12:10:24.660Z,84.20
2018-01-10T12:12:56.575Z,84.60
2018-01-10T12:15:29.220Z,83.90
2018-01-10T12:18:01.244Z,83.80
2018-01-10T12:20:33.119Z,84.00
2018-01-10T12:23:05.013Z,84.10
2018-01-10T12:25:37.128Z,83.00
2018-01-10T12:28:09.032Z,84.00
2018-01-10T12:30:40.931Z,84.00
2018-01-10T12:33:13.597Z,83.30
2018-01-10T12:35:46.257Z,83.40
2018-01-10T12:38:18.172Z,83.40
2018-01-10T12:40:50.107Z,82.90
2018-01-10T12:43:22.023Z,83.00
2018-01-10T12:45:54.034Z,83.60
2018-01-10T12:48:26.792Z,83.00
2018-01-10T12:50:58.680Z,83.00
2018-01-10T12:53:31.408Z,82.30
2018-01-10T12:56:03.303Z,82.90
2018-01-10T12:58:35.984Z,81.30
2018-01-10T13:01:08.634Z,81.60
2018-01-10T13:03:40.551Z,81.50
2018-01-10T13:06:12.441Z,80.90
2018-01-10T13:08:44.358Z,80.80
2018-01-10T13:11:16.239Z,80.60
2018-01-10T13:13:48.145Z,80.40
2018-01-10T13:16:20.071Z,80.50
2018-01-10T13:18:51.983Z,80.30
2018-01-10T13:21:23.855Z,80.10
2018-01-10T13:23:56.532Z,78.80
2018-01-10T13:26:29.172Z,78.00
2018-01-10T13:29:01.087Z,78.00
2018-01-10T13:31:32.972Z,78.50
2018-01-10T13:34:04.880Z,78.50
2018-01-10T13:36:36.979Z,78.50
2018-01-10T13:39:08.895Z,78.20
2018-01-10T13:41:40.791Z,78.10
2018-01-10T13:44:12.694Z,78.80
2018-01-10T13:46:44.594Z,78.70
2018-01-10T13:49:17.267Z,79.40
2018-01-10T13:51:49.915Z,79.60
2018-01-10T13:54:22.604Z,79.00
2018-01-10T13:56:54.488Z,78.90
2018-01-10T13:59:27.164Z,79.90
2018-01-10T14:01:59.806Z,81.00
2018-01-10T14:04:31.802Z,81.00
2018-01-10T14:07:03.684Z,81.30
2018-01-10T14:09:35.619Z,82.20
2018-01-10T14:12:07.492Z,81.80
2018-01-10T14:14:40.163Z,82.10
2018-01-10T14:17:12.820Z,82.50
2018-01-10T14:19:44.714Z,82.50
2018-01-10T14:22:16.591Z,81.90
2018-01-10T14:24:48.491Z,82.20
2018-01-10T14:27:20.380Z,82.00
2018-01-10T14:29:52.296Z,82.10
2018-01-10T14:32:24.167Z,83.00
2018-01-10T14:34:56.071Z,82.70
2018-01-10T14:37:27.951Z,82.50
2018-01-10T14:39:59.858Z,81.80
2018-01-10T14:42:31.743Z,82.30
2018-01-10T14:45:04.411Z,81.10
2018-01-10T14:47:36.292Z,81.10
2018-01-10T14:50:08.976Z,80.90
2018-01-10T14:52:41.616Z,82.20
2018-01-10T14:55:13.528Z,82.20
2018-01-10T14:57:45.414Z,82.50
2018-01-10T15:00:17.319Z,82.50
2018-01-10T15:02:49.959Z,82.70
2018-01-10T15:05:22.643Z,82.70
2018-01-10T15:07:55.287Z,82.50
2018-01-10T15:10:27.179Z,82.50
2018-01-10T15:12:59.048Z,82.80
2018-01-10T15:15:30.944Z,82.80
2018-01-10T15:18:03.584Z,83.00
2018-01-10T15:20:35.491Z,83.00
2018-01-10T15:23:07.390Z,82.90
2018-01-10T15:25:39.294Z,83.20
2018-01-10T15:28:11.940Z,83.40
2018-01-10T15:30:43.847Z,83.40
2018-01-10T15:33:16.506Z,83.00
2018-01-10T15:35:48.402Z,83.00
2018-01-10T15:38:20.275Z,83.20
2018-01-10T15:40:52.194Z,83.10
2018-01-10T15:43:24.835Z,83.60
2018-01-10T15:45:56.957Z,83.50
2018-01-10T15:48:29.590Z,83.20
2018-01-10T15:51:01.513Z,83.10
2018-01-10T15:53:33.390Z,83.10
2018-01-10T15:56:05.303Z,83.10
2018-01-10T15:58:37.943Z,82.60
2018-01-10T16:01:09.848Z,82.60
2018-01-10T16:03:42.491Z,82.60
2018-01-10T16:06:14.404Z,82.60
2018-01-10T16:08:46.299Z,82.60
2018-01-10T16:11:18.204Z,82.40
2018-01-10T16:13:50.851Z,82.10
2018-01-10T16:16:22.759Z,82.10
2018-01-10T16:18:54.635Z,82.30
2018-01-10T16:21:26.539Z,82.60
2018-01-10T16:23:58.412Z,82.30
2018-01-10T16:26:31.092Z,82.50
2018-01-10T16:29:02.981Z,82.20
2018-01-10T16:31:34.878Z,81.90
2018-01-10T16:34:06.775Z,81.90
2018-01-10T16:36:38.667Z,81.50
2018-01-10T16:39:10.563Z,81.80
2018-01-10T16:41:42.466Z,81.90
2018-01-10T16:44:15.134Z,81.80
2018-01-10T16:46:47.804Z,81.60
2018-01-10T16:49:19.685Z,81.60
2018-01-10T16:51:52.347Z,81.60
2018-01-10T16:54:24.233Z,81.60
2018-01-10T16:56:56.138Z,81.30
2018-01-10T16:59:28.024Z,82.10
2018-01-10T17:01:59.924Z,80.80
2018-01-10T17:04:31.796Z,80.80
2018-01-10T17:07:03.716Z,81.10
2018-01-10T17:09:36.362Z,81.80
2018-01-10T17:12:09.028Z,81.30
2018-01-10T17:14:40.904Z,81.40
2018-01-10T17:17:12.795Z,81.60
2018-01-10T17:19:45.439Z,81.60
2018-01-10T17:22:17.331Z,81.60
2018-01-10T17:24:50.378Z,81.90
2018-01-10T17:27:22.294Z,81.90
2018-01-10T17:29:54.172Z,82.20
2018-01-10T17:32:26.076Z,82.10
2018-01-10T17:34:57.952Z,82.20
2018-01-10T17:37:29.856Z,81.90
2018-01-10T17:40:01.731Z,82.00
2018-01-10T17:42:33.635Z,81.90
2018-01-10T17:45:05.508Z,82.20
2018-01-10T17:47:38.171Z,82.10
2018-01-10T17:50:10.064Z,82.10
2018-01-10T17:52:42.715Z,81.60
2018-01-10T17:55:15.424Z,81.70
2018-01-10T17:57:47.317Z,81.70
2018-01-10T18:00:19.448Z,81.90
2018-01-10T18:02:51.339Z,82.00
2018-01-10T18:05:23.230Z,82.20
2018-01-10T18:07:55.131Z,82.00
2018-01-10T18:10:27.012Z,82.00
2018-01-10T18:12:58.920Z,82.40
2018-01-10T18:15:30.787Z,82.20
2018-01-10T18:18:03.458Z,82.40
2018-01-10T18:20:35.331Z,82.30
2018-01-10T18:23:07.991Z,82.60
2018-01-10T18:25:39.866Z,82.50
2018-01-10T18:28:12.531Z,82.70
2018-01-10T18:30:44.422Z,82.60
2018-01-10T18:33:17.080Z,82.70
2018-01-10T18:35:49.723Z,83.10
2018-01-10T18:38:21.619Z,82.40
2018-01-10T18:40:54.281Z,83.00
2018-01-10T18:43:26.170Z,82.70
2018-01-10T18:45:58.860Z,83.20
2018-01-10T18:48:31.546Z,84.70
2018-01-10T18:51:03.427Z,84.00
2018-01-10T18:53:35.323Z,84.30
2018-01-10T18:56:07.203Z,85.10
2018-01-10T18:58:39.900Z,85.80
2018-01-10T19:01:11.767Z,85.70
2018-01-10T19:03:43.667Z,86.20
2018-01-10T19:06:15.542Z,86.40
2018-01-10T19:08:47.464Z,86.30
2018-01-10T19:11:19.322Z,86.60
2018-01-10T19:13:51.222Z,85.80
2018-01-10T19:16:23.130Z,86.00
2018-01-10T19:18:55.767Z,85.90
2018-01-10T19:21:27.691Z,85.80
2018-01-10T19:23:59.578Z,86.10
2018-01-10T19:26:31.453Z,86.30
2018-01-10T19:29:04.116Z,86.70
2018-01-10T19:31:36.001Z,86.50
2018-01-10T19:34:08.667Z,86.50
2018-01-10T19:36:40.543Z,86.50
2018-01-10T19:39:13.203Z,86.40
2018-01-10T19:41:45.085Z,86.40
2018-01-10T19:44:17.746Z,86.80
2018-01-10T19:46:50.393Z,87.00
2018-01-10T19:49:22.290Z,86.80
2018-01-10T19:51:54.939Z,86.70
2018-01-10T19:54:26.853Z,86.70
2018-01-10T19:56:58.719Z,87.20
2018-01-10T19:59:30.623Z,86.90
2018-01-10T20:02:02.512Z,86.90
2018-01-10T20:04:35.175Z,87.10
2018-01-10T20:07:07.046Z,87.10
2018-01-10T20:09:39.726Z,88.00
2018-01-10T20:12:12.358Z,87.90
2018-01-10T20:14:44.270Z,87.90
2018-01-10T20:17:16.912Z,88.80
2018-01-10T20:19:48.884Z,88.70
2018-01-10T20:22:20.800Z,89.80
2018-01-10T20:24:52.732Z,90.00
2018-01-10T20:27:25.364Z,90.20
2018-01-10T20:29:57.275Z,90.20
2018-01-10T20:32:29.917Z,90.60
2018-01-10T20:35:01.815Z,90.60
2018-01-10T20:37:34.461Z,91.00
2018-01-10T20:40:06.360Z,91.00
2018-01-10T20:42:38.252Z,90.80
2018-01-10T20:45:10.162Z,90.90
2018-01-10T20:47:42.798Z,90.70
2018-01-10T20:50:15.537Z,90.90
2018-01-10T20:52:48.187Z,91.30
2018-01-10T20:55:20.092Z,91.30
2018-01-10T20:57:51.959Z,91.20
2018-01-10T21:00:23.904Z,91.10
2018-01-10T21:02:56.537Z,91.20
2018-01-10T21:05:28.426Z,91.20
2018-01-10T21:08:01.064Z,91.50
2018-01-10T21:10:32.959Z,91.50
2018-01-10T21:13:05.599Z,91.60
2018-01-10T21:15:37.503Z,91.60
2018-01-10T21:18:10.158Z,91.70
2018-01-10T21:20:42.048Z,91.60
2018-01-10T21:23:14.687Z,91.80
2018-01-10T21:25:46.582Z,91.80
2018-01-10T21:28:19.229Z,91.90
2018-01-10T21:30:51.123Z,91.90
2018-01-10T21:33:23.759Z,92.10
2018-01-10T21:35:55.667Z,92.10
2018-01-10T21:38:27.535Z,92.00
